createdAt,value
2022-12-11T00:00:40.801Z,12.15
2022-12-11T00:03:12.738Z,11.20
2022-12-11T00:05:42.411Z,10.63
2022-12-11T00:08:08.974Z,11.57
2022-12-11T00:10:38.022Z,12.90
2022-12-11T00:13:05.240Z,12.32
2022-12-11T00:15:32.124Z,14.02
2022-12-11T00:17:58.759Z,11.57
2022-12-11T00:20:25.409Z,11.02
2022-12-11T00:22:51.911Z,11.55
2022-12-11T00:25:18.573Z,12.70
2022-12-11T00:27:46.252Z,13.63
2022-12-11T00:30:13.813Z,12.98
2022-12-11T00:32:40.358Z,12.38
2022-12-11T00:35:07.262Z,11.55
2022-12-11T00:37:33.985Z,12.60
2022-12-11T00:40:00.572Z,13.63
2022-12-11T00:42:27.084Z,12.30
2022-12-11T00:44:53.609Z,12.07
2022-12-11T00:47:20.241Z,13.45
2022-12-11T00:49:50.010Z,10.57
2022-12-11T00:52:17.244Z,11.98
2022-12-11T00:54:43.745Z,12.35
2022-12-11T00:57:10.320Z,10.75
2022-12-11T00:59:36.888Z,10.23
2022-12-11T01:02:03.458Z,10.80
2022-12-11T01:04:30.007Z,10.07
2022-12-11T01:06:56.521Z,11.15
2022-12-11T01:09:23.196Z,9.93
2022-12-11T01:11:49.973Z,10.55
2022-12-11T01:14:16.577Z,11.32
2022-12-11T01:16:43.152Z,11.40
2022-12-11T01:19:09.729Z,11.70
2022-12-11T01:21:36.350Z,11.75
2022-12-11T01:24:02.884Z,9.45
2022-12-11T01:26:29.509Z,12.25
2022-12-11T01:28:56.038Z,9.45
2022-12-11T01:31:23.086Z,10.32
2022-12-11T01:33:49.764Z,10.07
2022-12-11T01:36:21.734Z,10.63
2022-12-11T01:38:49.271Z,11.00
2022-12-11T01:41:17.217Z,10.48
2022-12-11T01:44:02.721Z,10.57
2022-12-11T01:46:30.512Z,9.23
2022-12-11T01:48:58.339Z,11.10
2022-12-11T01:51:24.932Z,12.57
2022-12-11T01:54:00.623Z,11.00
2022-12-11T01:56:31.062Z,13.80
2022-12-11T01:59:01.642Z,11.35
2022-12-11T02:01:35.026Z,13.15
2022-12-11T02:04:02.333Z,11.57
2022-12-11T02:06:38.084Z,10.30
2022-12-11T02:09:12.001Z,10.05
2022-12-11T02:11:47.614Z,10.70
2022-12-11T02:14:37.149Z,10.82
2022-12-11T02:17:36.004Z,10.40
2022-12-11T02:20:17.881Z,9.05
2022-12-11T02:23:06.734Z,9.43
2022-12-11T02:25:54.359Z,8.23
2022-12-11T02:28:30.106Z,9.20
2022-12-11T02:31:18.956Z,10.77
2022-12-11T02:33:54.976Z,10.02
2022-12-11T02:36:24.919Z,9.02
2022-12-11T02:38:54.558Z,9.07
2022-12-11T02:41:23.445Z,9.07
2022-12-11T02:43:52.521Z,9.38
2022-12-11T02:46:21.628Z,10.80
2022-12-11T02:48:51.102Z,11.73
2022-12-11T02:51:23.742Z,9.57
2022-12-11T02:53:54.756Z,9.70
2022-12-11T02:56:26.817Z,10.35
2022-12-11T02:59:01.729Z,10.30
2022-12-11T03:01:29.273Z,9.40
2022-12-11T03:03:57.605Z,10.93
2022-12-11T03:06:31.083Z,10.95
2022-12-11T03:08:57.721Z,11.20
2022-12-11T03:11:30.483Z,10.70
2022-12-11T03:14:01.142Z,10.13
2022-12-11T03:16:38.657Z,10.60
2022-12-11T03:19:21.482Z,8.65
2022-12-11T03:22:03.276Z,9.30
2022-12-11T03:24:38.717Z,10.43
2022-12-11T03:27:23.123Z,8.73
2022-12-11T03:30:15.697Z,9.02
2022-12-11T03:32:50.456Z,8.98
2022-12-11T03:35:52.156Z,8.88
2022-12-11T03:38:36.365Z,8.05
2022-12-11T03:41:05.431Z,9.27
2022-12-11T03:43:33.145Z,8.60
2022-12-11T03:46:01.495Z,8.65
2022-12-11T03:48:32.741Z,8.85
2022-12-11T03:51:02.137Z,8.40
2022-12-11T03:53:28.826Z,9.93
2022-12-11T03:55:59.108Z,8.23
2022-12-11T03:58:25.719Z,9.25
2022-12-11T04:00:52.404Z,9.88
2022-12-11T04:03:18.940Z,8.88
2022-12-11T04:05:48.445Z,8.18
2022-12-11T04:08:16.018Z,7.97
2022-12-11T04:10:43.133Z,8.02
2022-12-11T04:13:10.465Z,8.47
2022-12-11T04:15:37.942Z,6.65
2022-12-11T04:18:05.781Z,8.07
2022-12-11T04:20:32.308Z,8.18
2022-12-11T04:22:58.966Z,7.60
2022-12-11T04:25:25.530Z,8.48
2022-12-11T04:27:52.092Z,6.50
2022-12-11T04:30:22.497Z,8.32
2022-12-11T04:32:50.027Z,7.43
2022-12-11T04:35:16.990Z,6.93
2022-12-11T04:37:43.936Z,8.60
2022-12-11T04:40:14.174Z,8.25
2022-12-11T04:42:41.331Z,8.05
2022-12-11T04:45:09.342Z,7.47
2022-12-11T04:47:37.932Z,7.75
2022-12-11T04:50:06.520Z,7.75
2022-12-11T04:52:33.633Z,7.72
2022-12-11T04:55:00.251Z,6.47
2022-12-11T04:57:26.793Z,6.75
2022-12-11T04:59:53.298Z,6.22
2022-12-11T05:02:19.940Z,7.10
2022-12-11T05:04:46.665Z,7.57
2022-12-11T05:07:13.411Z,6.57
2022-12-11T05:09:40.069Z,6.25
2022-12-11T05:12:06.697Z,7.82
2022-12-11T05:14:33.296Z,6.47
2022-12-11T05:17:00.011Z,6.78
2022-12-11T05:19:27.043Z,6.65
2022-12-11T05:21:53.946Z,5.60
2022-12-11T05:24:20.695Z,6.50
2022-12-11T05:26:47.193Z,6.32
2022-12-11T05:29:13.737Z,7.00
2022-12-11T05:31:40.635Z,6.43
2022-12-11T05:34:07.299Z,6.55
2022-12-11T05:36:34.387Z,6.07
2022-12-11T05:39:01.944Z,6.47
2022-12-11T05:41:30.535Z,5.75
2022-12-11T05:43:57.158Z,5.68
2022-12-11T05:46:26.364Z,6.28
2022-12-11T05:48:55.975Z,5.43
2022-12-11T05:51:23.493Z,6.22
2022-12-11T05:53:51.900Z,5.30
2022-12-11T05:56:30.124Z,5.70
2022-12-11T05:58:57.080Z,5.47
2022-12-11T06:01:30.413Z,5.57
2022-12-11T06:03:57.931Z,5.03
2022-12-11T06:06:25.470Z,5.38
2022-12-11T06:08:53.748Z,5.60
2022-12-11T06:11:24.164Z,5.90
2022-12-11T06:13:52.091Z,5.80
2022-12-11T06:16:19.432Z,7.13
2022-12-11T06:18:46.044Z,6.65
2022-12-11T06:21:13.709Z,6.55
2022-12-11T06:23:41.101Z,6.78
2022-12-11T06:26:08.190Z,7.15
2022-12-11T06:28:34.742Z,6.77
2022-12-11T06:31:02.068Z,8.70
2022-12-11T06:33:28.841Z,7.20
2022-12-11T06:35:55.375Z,7.32
2022-12-11T06:38:21.834Z,6.13
2022-12-11T06:40:58.710Z,8.15
2022-12-11T06:43:25.772Z,7.88
2022-12-11T06:45:52.717Z,8.30
2022-12-11T06:48:20.400Z,6.00
2022-12-11T06:50:47.073Z,5.68
2022-12-11T06:53:14.736Z,6.18
2022-12-11T06:55:42.041Z,6.28
2022-12-11T06:58:09.725Z,5.93
2022-12-11T07:00:36.751Z,5.35
2022-12-11T07:03:04.651Z,5.37
2022-12-11T07:05:32.509Z,5.55
2022-12-11T07:07:59.342Z,6.00
2022-12-11T07:10:26.040Z,4.68
2022-12-11T07:12:53.059Z,4.78
2022-12-11T07:15:19.565Z,5.43
2022-12-11T07:17:46.125Z,5.53
2022-12-11T07:20:12.872Z,5.90
2022-12-11T07:22:46.027Z,4.95
2022-12-11T07:25:13.482Z,6.05
2022-12-11T07:27:40.104Z,6.20
2022-12-11T07:30:07.397Z,5.18
2022-12-11T07:32:33.969Z,6.10
2022-12-11T07:35:00.554Z,5.50
2022-12-11T07:37:27.171Z,5.20
2022-12-11T07:39:53.677Z,5.70
2022-12-11T07:42:20.236Z,6.28
2022-12-11T07:44:46.780Z,6.38
2022-12-11T07:47:13.321Z,6.07
2022-12-11T07:49:39.837Z,7.57
2022-12-11T07:52:06.343Z,6.57
2022-12-11T07:54:32.961Z,7.10
2022-12-11T07:56:59.458Z,6.45
2022-12-11T07:59:25.934Z,6.72
2022-12-11T08:01:52.407Z,7.38
2022-12-11T08:04:18.979Z,7.95
2022-12-11T08:06:45.454Z,7.68
2022-12-11T08:09:19.094Z,7.68
2022-12-11T08:11:49.930Z,7.32
2022-12-11T08:14:16.615Z,7.18
2022-12-11T08:16:43.276Z,8.20
2022-12-11T08:19:13.526Z,7.30
2022-12-11T08:21:43.148Z,8.27
2022-12-11T08:24:10.298Z,8.15
2022-12-11T08:26:36.943Z,7.50
2022-12-11T08:29:03.964Z,7.88
2022-12-11T08:31:32.766Z,8.23
2022-12-11T08:33:59.444Z,8.57
2022-12-11T08:36:26.159Z,7.43
2022-12-11T08:38:55.123Z,8.00
2022-12-11T08:41:24.565Z,8.40
2022-12-11T08:43:51.526Z,8.00
2022-12-11T08:46:18.088Z,8.10
2022-12-11T08:48:44.562Z,8.93
2022-12-11T08:51:14.040Z,6.97
2022-12-11T08:53:40.644Z,7.43
2022-12-11T08:56:10.472Z,7.55
2022-12-11T08:58:37.700Z,8.68
2022-12-11T09:01:12.066Z,8.33
2022-12-11T09:03:40.239Z,7.93
2022-12-11T09:06:08.409Z,7.10
2022-12-11T09:11:06.550Z,6.72
2022-12-11T09:13:36.718Z,7.40
2022-12-11T09:16:13.019Z,8.48
2022-12-11T09:18:40.235Z,7.13
2022-12-11T09:21:09.824Z,7.20
2022-12-11T09:23:36.781Z,7.47
2022-12-11T09:26:08.373Z,7.72
2022-12-11T09:28:34.966Z,7.75
2022-12-11T09:31:01.593Z,7.00
2022-12-11T09:33:28.118Z,8.05
2022-12-11T09:36:02.710Z,7.93
2022-12-11T09:38:29.791Z,8.40
2022-12-11T09:40:56.785Z,7.50
2022-12-11T09:43:42.121Z,8.60
2022-12-11T09:46:15.271Z,6.28
2022-12-11T09:48:46.096Z,8.88
2022-12-11T09:51:28.525Z,7.25
2022-12-11T09:53:59.527Z,7.22
2022-12-11T09:56:39.731Z,7.90
2022-12-11T09:59:23.749Z,8.38
2022-12-11T10:02:02.259Z,8.65
2022-12-11T10:04:56.313Z,8.88
2022-12-11T10:07:37.924Z,7.03
2022-12-11T10:10:19.343Z,6.38
2022-12-11T10:13:12.990Z,8.20
2022-12-11T10:16:04.728Z,6.97
2022-12-11T10:18:33.748Z,7.45
2022-12-11T10:21:02.393Z,6.72
2022-12-11T10:23:38.188Z,7.05
2022-12-11T10:26:11.060Z,7.15
2022-12-11T10:28:37.897Z,7.78
2022-12-11T10:31:14.400Z,6.50
2022-12-11T10:33:56.351Z,7.20
2022-12-11T10:36:35.581Z,7.20
2022-12-11T10:39:10.929Z,6.90
2022-12-11T10:41:39.467Z,6.70
2022-12-11T10:44:16.391Z,6.50
2022-12-11T10:46:43.154Z,6.40
2022-12-11T10:49:23.554Z,6.68
2022-12-11T10:51:54.967Z,6.55
2022-12-11T10:54:24.230Z,6.63
2022-12-11T10:56:50.981Z,7.13
2022-12-11T10:59:46.905Z,7.20
2022-12-11T11:02:23.601Z,6.65
2022-12-11T11:04:51.331Z,6.53
2022-12-11T11:07:24.322Z,5.43
2022-12-11T11:10:04.223Z,6.25
2022-12-11T11:12:36.543Z,6.30
2022-12-11T11:15:11.437Z,5.82
2022-12-11T11:17:54.865Z,4.97
2022-12-11T11:20:28.492Z,5.03
2022-12-11T11:22:57.557Z,4.50
2022-12-11T11:25:30.821Z,5.75
2022-12-11T11:28:18.939Z,5.68
2022-12-11T11:30:58.533Z,6.10
2022-12-11T11:33:25.696Z,5.22
2022-12-11T11:35:54.470Z,5.28
2022-12-11T11:39:02.555Z,4.93
2022-12-11T11:42:07.689Z,5.53
2022-12-11T11:44:42.650Z,5.13
2022-12-11T11:47:17.198Z,4.93
2022-12-11T11:49:59.958Z,5.57
2022-12-11T11:52:36.334Z,8.85
2022-12-11T11:55:32.523Z,5.38
2022-12-11T11:58:22.857Z,5.72
2022-12-11T12:00:53.185Z,5.72
2022-12-11T12:03:23.032Z,6.25
2022-12-11T12:06:14.917Z,5.88
2022-12-11T12:08:51.752Z,5.70
2022-12-11T12:11:39.932Z,5.78
2022-12-11T12:17:38.503Z,5.30
2022-12-11T12:20:41.512Z,5.80
2022-12-11T12:23:29.668Z,4.43
2022-12-11T12:26:15.002Z,5.80
2022-12-11T12:29:10.159Z,5.07
2022-12-11T12:31:43.810Z,5.28
2022-12-11T12:34:16.713Z,5.28
2022-12-11T12:37:09.688Z,4.45
2022-12-11T12:40:00.653Z,4.65
2022-12-11T12:43:03.799Z,5.25
2022-12-11T12:45:50.144Z,6.20
2022-12-11T12:48:17.058Z,5.18
2022-12-11T12:50:48.491Z,4.90
2022-12-11T12:53:25.208Z,4.90
2022-12-11T12:55:52.941Z,5.82
2022-12-11T12:58:26.372Z,4.57
2022-12-11T13:00:53.154Z,4.85
2022-12-11T13:03:25.079Z,5.50
2022-12-11T13:05:58.415Z,3.67
2022-12-11T13:08:34.626Z,5.00
2022-12-11T13:11:08.998Z,4.65
2022-12-11T13:13:39.464Z,3.90
2022-12-11T13:16:16.360Z,4.47
2022-12-11T13:18:48.808Z,5.72
2022-12-11T13:21:36.714Z,5.88
2022-12-11T13:24:21.427Z,5.00
2022-12-11T13:26:49.690Z,5.30
2022-12-11T13:29:29.476Z,5.20
2022-12-11T13:31:59.390Z,5.22
2022-12-11T13:34:31.764Z,5.40
2022-12-11T13:36:58.698Z,5.85
2022-12-11T13:39:27.420Z,5.90
2022-12-11T13:41:57.972Z,5.45
2022-12-11T13:44:28.245Z,5.18
2022-12-11T13:46:57.959Z,4.47
2022-12-11T13:49:28.799Z,4.35
2022-12-11T13:51:58.869Z,3.80
2022-12-11T13:54:27.649Z,4.70
2022-12-11T13:56:55.739Z,3.35
2022-12-11T14:01:58.132Z,4.70
2022-12-11T14:04:25.612Z,4.38
2022-12-11T14:06:52.216Z,4.05
2022-12-11T14:09:23.232Z,4.30
2022-12-11T14:11:56.444Z,4.20
2022-12-11T14:14:41.947Z,4.63
2022-12-11T14:17:15.459Z,4.10
2022-12-11T14:19:47.665Z,4.57
2022-12-11T14:22:20.789Z,3.33
2022-12-11T14:24:52.241Z,4.90
2022-12-11T14:27:20.216Z,3.90
2022-12-11T14:32:22.088Z,4.47
2022-12-11T14:34:50.347Z,4.78
2022-12-11T14:37:20.118Z,4.35
2022-12-11T14:39:58.674Z,4.43
2022-12-11T14:42:29.849Z,4.40
2022-12-11T14:45:02.295Z,4.45
2022-12-11T14:47:37.015Z,5.20
2022-12-11T14:50:10.281Z,4.55
2022-12-11T14:52:41.841Z,5.05
2022-12-11T14:55:28.463Z,5.35
2022-12-11T14:57:59.094Z,5.38
2022-12-11T15:00:32.988Z,5.40
2022-12-11T15:03:20.337Z,5.75
2022-12-11T15:05:54.917Z,5.53
2022-12-11T15:08:27.489Z,4.97
2022-12-11T15:11:08.692Z,4.82
2022-12-11T15:13:38.829Z,7.60
2022-12-11T15:16:07.514Z,6.65
2022-12-11T15:18:40.481Z,4.65
2022-12-11T15:21:10.997Z,5.00
2022-12-11T15:23:52.759Z,5.18
2022-12-11T15:26:40.074Z,6.00
2022-12-11T15:29:25.079Z,5.80
2022-12-11T15:32:09.592Z,5.00
2022-12-11T15:34:50.274Z,5.40
2022-12-11T15:37:25.074Z,4.60
2022-12-11T15:39:53.525Z,5.13
2022-12-11T15:42:37.354Z,4.60
2022-12-11T15:45:07.979Z,7.15
2022-12-11T15:47:34.616Z,6.05
2022-12-11T15:50:25.553Z,6.45
2022-12-11T15:52:54.309Z,5.93
2022-12-11T15:55:22.430Z,5.82
2022-12-11T16:00:26.358Z,5.97
2022-12-11T16:02:52.920Z,7.03
2022-12-11T16:05:20.498Z,6.95
2022-12-11T16:07:48.019Z,6.97
2022-12-11T16:10:18.058Z,8.02
2022-12-11T16:12:45.328Z,9.48
2022-12-11T16:15:21.436Z,6.82
2022-12-11T16:17:49.843Z,8.77
2022-12-11T16:20:17.421Z,7.75
2022-12-11T16:22:43.957Z,7.60
2022-12-11T16:25:11.202Z,8.30
2022-12-11T16:27:37.857Z,8.73
2022-12-11T16:30:04.845Z,7.43
2022-12-11T16:32:32.807Z,8.55
2022-12-11T16:34:59.467Z,7.13
2022-12-11T16:37:26.181Z,8.55
2022-12-11T16:39:52.798Z,6.45
2022-12-11T16:42:19.421Z,7.20
2022-12-11T16:44:46.921Z,7.07
2022-12-11T16:47:13.548Z,8.27
2022-12-11T16:49:40.287Z,6.70
2022-12-11T16:52:06.795Z,7.22
2022-12-11T16:54:33.469Z,7.68
2022-12-11T16:57:00.246Z,6.60
2022-12-11T16:59:27.222Z,6.10
2022-12-11T17:01:55.574Z,6.55
2022-12-11T17:04:22.095Z,6.40
2022-12-11T17:06:48.696Z,8.00
2022-12-11T17:09:15.304Z,7.25
2022-12-11T17:11:41.809Z,7.97
2022-12-11T17:14:09.895Z,7.72
2022-12-11T17:16:36.394Z,6.80
2022-12-11T17:19:02.952Z,7.45
2022-12-11T17:21:29.445Z,8.90
2022-12-11T17:23:56.037Z,7.95
2022-12-11T17:26:22.591Z,7.78
2022-12-11T17:28:49.099Z,8.82
2022-12-11T17:31:18.619Z,8.52
2022-12-11T17:33:46.721Z,8.40
2022-12-11T17:38:44.967Z,7.00
2022-12-11T17:41:18.543Z,8.93
2022-12-11T17:43:51.545Z,7.25
2022-12-11T17:46:19.913Z,6.75
2022-12-11T17:48:47.274Z,9.77
2022-12-11T17:51:15.231Z,9.27
2022-12-11T17:53:41.707Z,8.10
2022-12-11T17:56:08.733Z,7.03
2022-12-11T17:58:35.415Z,7.95
2022-12-11T18:01:07.430Z,6.57
2022-12-11T18:03:34.282Z,7.50
2022-12-11T18:06:05.303Z,6.55
2022-12-11T18:08:31.786Z,7.18
2022-12-11T18:11:08.607Z,7.07
2022-12-11T18:13:35.262Z,7.05
2022-12-11T18:16:07.945Z,8.32
2022-12-11T18:18:34.905Z,6.65
2022-12-11T18:21:01.678Z,7.88
2022-12-11T18:23:28.269Z,7.50
2022-12-11T18:25:55.288Z,6.97
2022-12-11T18:28:21.777Z,6.60
2022-12-11T18:30:48.459Z,6.65
2022-12-11T18:33:15.617Z,7.07
2022-12-11T18:35:42.466Z,5.97
2022-12-11T18:38:09.257Z,6.85
2022-12-11T18:40:35.789Z,7.28
2022-12-11T18:43:03.075Z,5.97
2022-12-11T18:45:29.945Z,5.90
2022-12-11T18:47:56.386Z,6.45
2022-12-11T18:50:23.083Z,6.97
2022-12-11T18:52:53.373Z,6.97
2022-12-11T18:55:19.896Z,7.10
2022-12-11T18:57:46.414Z,6.68
2022-12-11T19:00:13.630Z,6.75
2022-12-11T19:02:40.125Z,6.63
2022-12-11T19:05:06.807Z,7.47
2022-12-11T19:07:33.370Z,6.93
2022-12-11T19:09:59.883Z,6.85
2022-12-11T19:12:26.397Z,7.40
2022-12-11T19:14:52.998Z,6.18
2022-12-11T19:17:19.533Z,6.57
2022-12-11T19:19:46.164Z,7.70
2022-12-11T19:22:13.323Z,6.80
2022-12-11T19:24:39.941Z,7.13
2022-12-11T19:27:13.038Z,7.18
2022-12-11T19:29:40.197Z,7.65
2022-12-11T19:32:06.712Z,7.10
2022-12-11T19:34:33.267Z,7.30
2022-12-11T19:36:59.866Z,7.20
2022-12-11T19:39:26.465Z,7.22
2022-12-11T19:41:52.970Z,7.38
2022-12-11T19:44:19.493Z,7.22
2022-12-11T19:46:46.079Z,7.55
2022-12-11T19:49:12.918Z,7.63
2022-12-11T19:51:42.147Z,5.82
2022-12-11T19:54:12.279Z,7.15
2022-12-11T19:56:38.794Z,6.95
2022-12-11T19:59:07.858Z,6.90
2022-12-11T20:01:36.762Z,6.43
2022-12-11T20:04:09.292Z,6.80
2022-12-11T20:06:37.666Z,6.70
2022-12-11T20:09:05.861Z,6.70
2022-12-11T20:11:33.249Z,7.45
2022-12-11T20:14:00.079Z,5.90
2022-12-11T20:16:46.291Z,6.22
2022-12-11T20:19:13.653Z,5.93
2022-12-11T20:21:40.331Z,5.90
2022-12-11T20:24:07.078Z,6.55
2022-12-11T20:26:33.649Z,5.15
2022-12-11T20:29:00.115Z,5.70
2022-12-11T20:31:26.693Z,5.25
2022-12-11T20:33:56.434Z,5.70
2022-12-11T20:36:24.726Z,6.15
2022-12-11T20:38:52.084Z,6.80
2022-12-11T20:41:22.062Z,8.07
2022-12-11T20:43:48.805Z,6.97
2022-12-11T20:46:17.127Z,8.05
2022-12-11T20:48:45.181Z,6.53
2022-12-11T20:53:40.223Z,6.32
2022-12-11T20:56:15.199Z,5.43
2022-12-11T20:58:42.233Z,6.32
2022-12-11T21:01:15.132Z,5.22
2022-12-11T21:03:42.332Z,5.43
2022-12-11T21:06:17.981Z,6.32
2022-12-11T21:08:44.480Z,6.28
2022-12-11T21:11:11.101Z,6.22
2022-12-11T21:13:37.533Z,7.03
2022-12-11T21:16:05.785Z,5.22
2022-12-11T21:18:32.362Z,5.75
2022-12-11T21:20:58.937Z,5.70
2022-12-11T21:23:26.028Z,6.47
2022-12-11T21:25:53.036Z,5.73
2022-12-11T21:28:20.235Z,4.70
2022-12-11T21:30:47.057Z,5.68
2022-12-11T21:33:13.662Z,5.20
2022-12-11T21:35:40.256Z,6.28
2022-12-11T21:38:06.949Z,7.05
2022-12-11T21:40:33.913Z,5.68
2022-12-11T21:43:00.442Z,5.28
2022-12-11T21:48:14.236Z,5.13
2022-12-11T21:50:41.712Z,5.15
2022-12-11T21:53:08.361Z,6.60
2022-12-11T21:55:34.942Z,5.57
2022-12-11T21:58:01.479Z,6.03
2022-12-11T22:00:27.992Z,5.72
2022-12-11T22:02:54.763Z,5.88
2022-12-11T22:05:21.575Z,5.88
2022-12-11T22:07:48.183Z,6.50
2022-12-11T22:10:14.916Z,6.20
2022-12-11T22:12:41.454Z,5.88
2022-12-11T22:15:08.821Z,6.35
2022-12-11T22:17:35.389Z,6.50
2022-12-11T22:20:01.923Z,5.95
2022-12-11T22:22:28.461Z,6.80
2022-12-11T22:24:55.009Z,5.45
2022-12-11T22:27:23.874Z,6.47
2022-12-11T22:29:50.777Z,6.43
2022-12-11T22:32:17.239Z,6.65
2022-12-11T22:34:43.686Z,5.43
2022-12-11T22:37:10.208Z,5.72
2022-12-11T22:39:36.673Z,6.15
2022-12-11T22:42:04.217Z,6.22
2022-12-11T22:44:30.693Z,5.05
2022-12-11T22:46:57.162Z,5.55
2022-12-11T22:49:23.674Z,5.95
2022-12-11T22:51:50.445Z,6.47
2022-12-11T22:54:17.018Z,6.18
2022-12-11T22:56:43.649Z,5.53
2022-12-11T22:59:10.305Z,5.68
2022-12-11T23:01:36.862Z,5.80
2022-12-11T23:04:03.451Z,4.85
2022-12-11T23:06:30.170Z,5.57
2022-12-11T23:09:00.502Z,5.95
2022-12-11T23:11:35.779Z,5.38
2022-12-11T23:14:04.406Z,6.10
2022-12-11T23:16:31.233Z,6.63
2022-12-11T23:18:58.317Z,7.18
2022-12-11T23:21:26.316Z,6.17
2022-12-11T23:26:19.588Z,5.55
2022-12-11T23:28:47.236Z,4.95
2022-12-11T23:31:14.191Z,4.88
2022-12-11T23:33:40.839Z,6.57
2022-12-11T23:36:08.210Z,6.47
2022-12-11T23:38:34.862Z,7.47
2022-12-11T23:41:02.588Z,5.53
2022-12-11T23:43:29.466Z,5.88
2022-12-11T23:45:56.087Z,5.22
2022-12-11T23:48:22.726Z,5.47
2022-12-11T23:50:49.206Z,6.28
2022-12-11T23:53:15.895Z,7.13
2022-12-11T23:55:44.461Z,5.63
2022-12-11T23:58:11.549Z,5.28
